usa flag      new mexico flag

Language: 

LomaPinon History Data from Weather Underground


LomaPinon Weather Station Historical Data
 
Daily Summary for August 14, 2018 Units:  English    Metric   Both
« Previous Day
Next Day »
Daily Weekly Monthly Yearly Custom
  Current: High: Low: Average:
Temperature: 87.9 °F TemperatureF °F 59.9 °F 76.3 °F
Dew Point: 40.5 °F DewpointF °F 38.6 °F 48.2 °F
Humidity: 19 % Humidity % 15 % 42 %
Wind Speed: 0 mph WindSpeedMPH mph 0 mph 0.3 mph
Wind Gust: 1 mph WindSpeedGustMPH mph - -
Wind:Calm - - SE
Pressure: 30.09 in PressureIn in 30.07 in -
Precipitation: 0 in      
Historical Graphs
 
 
Tabular Data for August 14, 2018
Time Temperature Dew Point Pressure Wind Wind Speed Wind Gust Humidity Rainfall Rate (Hourly) solar
TemperatureF °F DewpointF °F PressureIn in Calm     Humidity % HourlyPrecipIn in SolarRadiationWatts/m^2 W/m2
00:04 68 °F 52.7 °F 30.16 in Calm     58 % 0 in 0.00 W/m2
00:09 67.9 °F 52.1 °F 30.16 in Calm     57 % 0 in 0.00 W/m2
00:14 67.8 °F 51.5 °F 30.17 in SSW 1 mph 1 mph 56 % 0 in 0.00 W/m2
00:19 67.9 °F 51.6 °F 30.17 in Calm   3 mph 56 % 0 in 0.00 W/m2
00:24 67.9 °F 51.1 °F 30.17 in Calm   3 mph 55 % 0 in 0.00 W/m2
00:29 68 °F 49.7 °F 30.17 in Calm   1 mph 52 % 0 in 0.00 W/m2
00:34 68 °F 49.7 °F 30.17 in Calm   1 mph 52 % 0 in 0.00 W/m2
00:39 68.1 °F 50.3 °F 30.17 in Calm     53 % 0 in 0.00 W/m2
00:44 68.2 °F 51.4 °F 30.17 in Calm     55 % 0 in 0.00 W/m2
00:49 68.3 °F 50.5 °F 30.18 in Calm     53 % 0 in 0.00 W/m2
00:54 68.3 °F 51 °F 30.18 in Calm     54 % 0 in 0.00 W/m2
00:59 68.4 °F 52.1 °F 30.18 in Calm     56 % 0 in 0.00 W/m2
01:04 68.4 °F 52.1 °F 30.18 in Calm     56 % 0 in 0.00 W/m2
01:09 68.4 °F 52.6 °F 30.17 in Calm     57 % 0 in 0.00 W/m2
01:14 68.3 °F 52.9 °F 30.17 in Calm     58 % 0 in 0.00 W/m2
01:19 68.2 °F 52.9 °F 30.17 in Calm     58 % 0 in 0.00 W/m2
01:24 68 °F 53.1 °F 30.17 in Calm     59 % 0 in 0.00 W/m2
01:29 67.8 °F 52.9 °F 30.16 in Calm     59 % 0 in 0.00 W/m2
01:34 67.6 °F 53.2 °F 30.17 in Calm     60 % 0 in 0.00 W/m2
01:39 67.4 °F 53.5 °F 30.17 in Calm     61 % 0 in 0.00 W/m2
01:44 67.1 °F 53.6 °F 30.16 in Calm     62 % 0 in 0.00 W/m2
01:49 66.8 °F 53.4 °F 30.16 in Calm     62 % 0 in 0.00 W/m2
01:54 66.6 °F 52.7 °F 30.16 in Calm     61 % 0 in 0.00 W/m2
01:59 66.3 °F 52.4 °F 30.16 in Calm     61 % 0 in 0.00 W/m2
02:04 65.9 °F 51.6 °F 30.16 in Calm   3 mph 60 % 0 in 0.00 W/m2
02:09 65.7 °F 51.4 °F 30.16 in Calm   3 mph 60 % 0 in 0.00 W/m2
02:14 65.6 °F 51.3 °F 30.16 in Calm   1 mph 60 % 0 in 0.00 W/m2
02:19 65.6 °F 51.8 °F 30.16 in Calm   1 mph 61 % 0 in 0.00 W/m2
02:24 65.4 °F 51.6 °F 30.16 in Calm     61 % 0 in 0.00 W/m2
02:29 65.2 °F 51.4 °F 30.16 in Calm     61 % 0 in 0.00 W/m2
02:34 65 °F 51.2 °F 30.16 in Calm     61 % 0 in 0.00 W/m2
02:39 64.9 °F 50.7 °F 30.16 in Calm     60 % 0 in 0.00 W/m2
02:44 64.8 °F 50.6 °F 30.16 in Calm     60 % 0 in 0.00 W/m2
02:49 64.7 °F 50.5 °F 30.16 in Calm     60 % 0 in 0.00 W/m2
02:54 64.5 °F 49.8 °F 30.16 in Calm   1 mph 59 % 0 in 0.00 W/m2
02:59 64.4 °F 49.3 °F 30.16 in Calm   1 mph 58 % 0 in 0.00 W/m2
03:04 64.4 °F 49.3 °F 30.16 in Calm     58 % 0 in 0.00 W/m2
03:09 64.4 °F 49.8 °F 30.15 in Calm     59 % 0 in 0.00 W/m2
03:14 64.3 °F 50.1 °F 30.15 in Calm     60 % 0 in 0.00 W/m2
03:19 64.2 °F 50.5 °F 30.15 in Calm     61 % 0 in 0.00 W/m2
03:24 64.1 °F 49.9 °F 30.15 in Calm     60 % 0 in 0.00 W/m2
03:29 63.9 °F 50.2 °F 30.15 in Calm     61 % 0 in 0.00 W/m2
03:34 63.8 °F 51.8 °F 30.15 in Calm   1 mph 65 % 0 in 0.00 W/m2
03:39 63.5 °F 51.9 °F 30.15 in Calm   1 mph 66 % 0 in 0.00 W/m2
03:44 63.2 °F 52.1 °F 30.15 in Calm   1 mph 67 % 0 in 0.00 W/m2
03:49 63 °F 52.3 °F 30.15 in Calm     68 % 0 in 0.00 W/m2
03:54 62.7 °F 51.6 °F 30.16 in Calm     67 % 0 in 0.00 W/m2
03:59 62.5 °F 51.8 °F 30.16 in Calm     68 % 0 in 0.00 W/m2
04:04 62.3 °F 51.6 °F 30.16 in Calm     68 % 0 in 0.00 W/m2
04:09 62.1 °F 51.8 °F 30.16 in Calm     69 % 0 in 0.00 W/m2
04:14 61.9 °F 51.6 °F 30.16 in Calm     69 % 0 in 0.00 W/m2
04:19 61.6 °F 50.9 °F 30.16 in Calm     68 % 0 in 0.00 W/m2
04:24 61.4 °F 50.7 °F 30.16 in Calm     68 % 0 in 0.00 W/m2
04:29 61.3 °F 50.2 °F 30.16 in Calm     67 % 0 in 0.00 W/m2
04:34 61.3 °F 50.6 °F 30.16 in Calm     68 % 0 in 0.00 W/m2
04:39 61.2 °F 49.7 °F 30.16 in Calm   1 mph 66 % 0 in 0.00 W/m2
04:44 61.2 °F 49.7 °F 30.16 in Calm   1 mph 66 % 0 in 0.00 W/m2
04:49 61.1 °F 49.7 °F 30.16 in Calm     66 % 0 in 0.00 W/m2
04:54 61.2 °F 49.3 °F 30.16 in Calm   1 mph 65 % 0 in 0.00 W/m2
04:59 61.2 °F 49.3 °F 30.16 in Calm   1 mph 65 % 0 in 0.00 W/m2
05:04 61.2 °F 48.9 °F 30.16 in Calm   1 mph 64 % 0 in 0.00 W/m2
05:09 61.2 °F 48.9 °F 30.16 in Calm     64 % 0 in 0.00 W/m2
05:14 61.2 °F 48.5 °F 30.17 in Calm     63 % 0 in 0.00 W/m2
05:19 61.2 °F 48.9 °F 30.17 in Calm     64 % 0 in 0.00 W/m2
05:24 61.1 °F 49.2 °F 30.17 in Calm     65 % 0 in 0.00 W/m2
05:29 61.1 °F 49.2 °F 30.18 in Calm     65 % 0 in 0.00 W/m2
05:34 61 °F 49.1 °F 30.18 in Calm     65 % 0 in 0.00 W/m2
05:39 60.9 °F 49.5 °F 30.17 in Calm     66 % 0 in 0.00 W/m2
05:44 60.9 °F 49.9 °F 30.18 in Calm     67 % 0 in 0.00 W/m2
05:49 60.8 °F 49.8 °F 30.17 in Calm     67 % 0 in 0.00 W/m2
05:54 60.6 °F 50 °F 30.18 in Calm   1 mph 68 % 0 in 0.00 W/m2
05:59 60.4 °F 50.2 °F 30.18 in Calm   3 mph 69 % 0 in 0.00 W/m2
06:04 60.2 °F 49.6 °F 30.18 in Calm   3 mph 68 % 0 in 0.00 W/m2
06:09 60.1 °F 49.9 °F 30.18 in Calm   3 mph 69 % 0 in 0.00 W/m2
06:14 60 °F 49.8 °F 30.18 in Calm   2 mph 69 % 0 in 0.00 W/m2
06:19 60 °F 49.8 °F 30.18 in Calm   1 mph 69 % 0 in 0.00 W/m2
06:24 59.9 °F 49.7 °F 30.18 in West 1 mph 1 mph 69 % 0 in 0.00 W/m2
06:29 60 °F 49 °F 30.18 in Calm   3 mph 67 % 0 in 5.00 W/m2
06:34 60.2 °F 48.8 °F 30.19 in Calm   3 mph 66 % 0 in 9.00 W/m2
06:39 60.3 °F 48.9 °F 30.19 in Calm     66 % 0 in 14.00 W/m2
06:44 60.4 °F 49 °F 30.19 in Calm     66 % 0 in 18.00 W/m2
06:49 60.4 °F 48.6 °F 30.19 in Calm   1 mph 65 % 0 in 23.00 W/m2
06:54 60.6 °F 48.4 °F 30.19 in Calm   1 mph 64 % 0 in 28.00 W/m2
06:59 60.7 °F 48.4 °F 30.20 in Calm   1 mph 64 % 0 in 33.00 W/m2
07:04 60.9 °F 48.6 °F 30.20 in Calm     64 % 0 in 37.00 W/m2
07:09 60.9 °F 48.6 °F 30.20 in Calm     64 % 0 in 42.00 W/m2
07:14 61 °F 48.3 °F 30.20 in Calm     63 % 0 in 46.00 W/m2
07:19 61.1 °F 48.8 °F 30.20 in Calm     64 % 0 in 53.00 W/m2
07:24 61.2 °F 48.9 °F 30.20 in Calm     64 % 0 in 123.00 W/m2
07:29 61.3 °F 49.4 °F 30.20 in Calm   1 mph 65 % 0 in 141.00 W/m2
07:34 61.6 °F 49.7 °F 30.20 in Calm   1 mph 65 % 0 in 158.00 W/m2
07:39 61.8 °F 49.9 °F 30.20 in Calm     65 % 0 in 174.00 W/m2
07:44 62.2 °F 49.9 °F 30.20 in Calm     64 % 0 in 193.00 W/m2
07:49 62.8 °F 50.4 °F 30.20 in Calm     64 % 0 in 211.00 W/m2
07:54 63.2 °F 50.4 °F 30.20 in Calm     63 % 0 in 225.00 W/m2
07:59 63.7 °F 50.9 °F 30.21 in Calm     63 % 0 in 243.00 W/m2
08:04 64.2 °F 50.9 °F 30.21 in Calm     62 % 0 in 260.00 W/m2
08:09 64.7 °F 51.8 °F 30.21 in Calm     63 % 0 in 276.00 W/m2
08:14 65.2 °F 52.3 °F 30.21 in Calm   3 mph 63 % 0 in 295.00 W/m2
08:19 65.8 °F 51.5 °F 30.21 in Calm   3 mph 60 % 0 in 313.00 W/m2
08:24 66.4 °F 52.5 °F 30.20 in Calm   3 mph 61 % 0 in 327.00 W/m2
08:29 67 °F 51.3 °F 30.20 in Calm   4 mph 57 % 0 in 345.00 W/m2
08:34 67.6 °F 51.3 °F 30.20 in Calm   4 mph 56 % 0 in 362.00 W/m2
08:39 68.3 °F 51.5 °F 30.21 in Calm   1 mph 55 % 0 in 380.00 W/m2
08:44 68.9 °F 52.6 °F 30.21 in Calm   1 mph 56 % 0 in 397.00 W/m2
08:49 69.5 °F 51.1 °F 30.21 in Calm   2 mph 52 % 0 in 413.00 W/m2
08:54 70.1 °F 52.2 °F 30.21 in Calm   2 mph 53 % 0 in 432.00 W/m2
08:59 70.6 °F 52.1 °F 30.21 in Calm   1 mph 52 % 0 in 445.00 W/m2
09:04 71.2 °F 52.1 °F 30.21 in Calm   1 mph 51 % 0 in 464.00 W/m2
09:09 71.8 °F 52.2 °F 30.20 in NNE 2 mph 2 mph 50 % 0 in 482.00 W/m2
09:14 72.4 °F 52.2 °F 30.20 in Calm   3 mph 49 % 0 in 496.00 W/m2
09:19 73 °F 52.1 °F 30.20 in Calm   3 mph 48 % 0 in 512.00 W/m2
09:24 73.5 °F 51.4 °F 30.21 in Calm   1 mph 46 % 0 in 527.00 W/m2
09:29 73.9 °F 51.8 °F 30.21 in Calm     46 % 0 in 543.00 W/m2
09:34 74.3 °F 52.2 °F 30.21 in Calm   1 mph 46 % 0 in 559.00 W/m2
09:39 74.8 °F 52 °F 30.21 in Calm   1 mph 45 % 0 in 577.00 W/m2
09:45 75 °F 51.6 °F 30.21 in Calm   2 mph 44 % 0 in 592.00 W/m2
09:49 75.3 °F 51.9 °F 30.21 in NE 2 mph 3 mph 44 % 0 in 606.00 W/m2
09:54 75.7 °F 52.8 °F 30.21 in Calm   3 mph 45 % 0 in 619.00 W/m2
09:59 76.2 °F 53.3 °F 30.20 in Calm   3 mph 45 % 0 in 631.00 W/m2
10:04 76.6 °F 51.8 °F 30.21 in Calm   3 mph 42 % 0 in 645.00 W/m2
10:09 77 °F 52.1 °F 30.21 in ENE 3 mph 3 mph 42 % 0 in 656.00 W/m2
10:14 77.3 °F 52.4 °F 30.20 in Calm   3 mph 42 % 0 in 671.00 W/m2
10:19 77.8 °F 54.1 °F 30.20 in Calm   3 mph 44 % 0 in 686.00 W/m2
10:24 78.2 °F 53.2 °F 30.20 in Calm   1 mph 42 % 0 in 700.00 W/m2
10:29 78.3 °F 52 °F 30.20 in Calm   1 mph 40 % 0 in 712.00 W/m2
10:34 78.7 °F 52.3 °F 30.20 in Calm   1 mph 40 % 0 in 724.00 W/m2
10:39 79.2 °F 52.8 °F 30.20 in Calm   1 mph 40 % 0 in 738.00 W/m2
10:44 79.3 °F 51.5 °F 30.20 in Calm   5 mph 38 % 0 in 744.00 W/m2
10:49 79.3 °F 52.2 °F 30.20 in Calm   5 mph 39 % 0 in 754.00 W/m2
10:54 79.4 °F 51.6 °F 30.20 in Calm   2 mph 38 % 0 in 763.00 W/m2
10:59 79.7 °F 51.8 °F 30.20 in Calm     38 % 0 in 772.00 W/m2
11:04 80.3 °F 52.4 °F 30.20 in Calm     38 % 0 in 782.00 W/m2
11:09 80.9 °F 52.9 °F 30.20 in Calm   2 mph 38 % 0 in 791.00 W/m2
11:14 81.3 °F 52.5 °F 30.20 in Calm   3 mph 37 % 0 in 796.00 W/m2
11:19 81.2 °F 51.7 °F 30.19 in Calm   3 mph 36 % 0 in 812.00 W/m2
11:24 81.6 °F 52.8 °F 30.19 in Calm   1 mph 37 % 0 in 817.00 W/m2
11:29 82.1 °F 52.5 °F 30.19 in Calm   4 mph 36 % 0 in 830.00 W/m2
11:34 82.6 °F 51.4 °F 30.19 in SSE 3 mph 6 mph 34 % 0 in 838.00 W/m2
11:39 82.8 °F 51.6 °F 30.19 in Calm   6 mph 34 % 0 in 844.00 W/m2
11:44 83 °F 51.7 °F 30.19 in Calm   5 mph 34 % 0 in 851.00 W/m2
11:49 83.3 °F 53.6 °F 30.19 in Calm   4 mph 36 % 0 in 856.00 W/m2
11:54 83.8 °F 52.4 °F 30.19 in Calm   4 mph 34 % 0 in 858.00 W/m2
11:59 83.9 °F 51.7 °F 30.19 in SSE 5 mph 5 mph 33 % 0 in 867.00 W/m2
12:04 84.4 °F 53 °F 30.18 in Calm   5 mph 34 % 0 in 867.00 W/m2
12:09 85.1 °F 51.9 °F 30.18 in ESE 3 mph 5 mph 32 % 0 in 863.00 W/m2
12:14 85.3 °F 51.2 °F 30.18 in Calm   5 mph 31 % 0 in 824.00 W/m2
12:19 85.5 °F 50.5 °F 30.18 in Calm   7 mph 30 % 0 in 879.00 W/m2
12:24 85.5 °F 51.4 °F 30.18 in Calm   7 mph 31 % 0 in 879.00 W/m2
12:29 85.6 °F 49.7 °F 30.17 in Calm   6 mph 29 % 0 in 881.00 W/m2
12:34 85.7 °F 54.1 °F 30.17 in Calm   6 mph 34 % 0 in 882.00 W/m2
12:39 86.1 °F 50.1 °F 30.17 in Calm   3 mph 29 % 0 in 889.00 W/m2
12:44 86.5 °F 50.5 °F 30.17 in Calm   5 mph 29 % 0 in 891.00 W/m2
12:49 86.6 °F 50.6 °F 30.16 in Calm   6 mph 29 % 0 in 895.00 W/m2
12:54 86.8 °F 49.8 °F 30.16 in Calm   6 mph 28 % 0 in 896.00 W/m2
12:59 87.1 °F 51 °F 30.16 in Calm   6 mph 29 % 0 in 891.00 W/m2
13:04 87.4 °F 50.3 °F 30.16 in Calm   7 mph 28 % 0 in 895.00 W/m2
13:09 87.6 °F 49.5 °F 30.16 in Calm   7 mph 27 % 0 in 898.00 W/m2
13:14 87.8 °F 50.6 °F 30.16 in SE 4 mph 7 mph 28 % 0 in 898.00 W/m2
13:19 88 °F 49.8 °F 30.16 in SSE 4 mph 7 mph 27 % 0 in 896.00 W/m2
13:24 88.3 °F 50.1 °F 30.16 in Calm   6 mph 27 % 0 in 889.00 W/m2
13:29 88.7 °F 51.4 °F 30.15 in Calm   6 mph 28 % 0 in 891.00 W/m2
13:34 89.1 °F 49.7 °F 30.15 in Calm   4 mph 26 % 0 in 884.00 W/m2
13:39 89.4 °F 50 °F 30.15 in Calm   5 mph 26 % 0 in 879.00 W/m2
13:44 89.7 °F 49.2 °F 30.15 in ENE 3 mph 5 mph 25 % 0 in 874.00 W/m2
13:49 89.9 °F 49.4 °F 30.15 in SSW 6 mph 6 mph 25 % 0 in 867.00 W/m2
13:54 90.2 °F 49.6 °F 30.14 in SSW 1 mph 6 mph 25 % 0 in 867.00 W/m2
13:59 90.6 °F 47.7 °F 30.14 in Calm   4 mph 23 % 0 in 865.00 W/m2
14:04 91 °F 48.1 °F 30.14 in Calm   4 mph 23 % 0 in 865.00 W/m2
14:09 91.5 °F 47.3 °F 30.13 in ESE 3 mph 4 mph 22 % 0 in 865.00 W/m2
14:14 91.6 °F 46.1 °F 30.13 in Calm   5 mph 21 % 0 in 856.00 W/m2
14:19 91.8 °F 46.3 °F 30.13 in Calm   5 mph 21 % 0 in 853.00 W/m2
14:24 92.1 °F 46.6 °F 30.13 in ESE 3 mph 7 mph 21 % 0 in 849.00 W/m2
14:29 92.5 °F 45.6 °F 30.13 in Calm   7 mph 20 % 0 in 838.00 W/m2
14:34 93 °F 46 °F 30.13 in SSE 1 mph 6 mph 20 % 0 in 831.00 W/m2
14:39 93.2 °F 46.2 °F 30.13 in Calm   8 mph 20 % 0 in 824.00 W/m2
14:44 93.5 °F 45.1 °F 30.12 in Calm   8 mph 19 % 0 in 817.00 W/m2
14:49 93.3 °F 43.5 °F 30.12 in Calm   7 mph 18 % 0 in 810.00 W/m2
14:54 93.3 °F 44.9 °F 30.12 in Calm   7 mph 19 % 0 in 803.00 W/m2
14:59 93.2 °F 43.4 °F 30.12 in SE 4 mph 7 mph 18 % 0 in 791.00 W/m2
15:04 93.2 °F 43.4 °F 30.11 in Calm   8 mph 18 % 0 in 779.00 W/m2
15:09 93.3 °F 43.5 °F 30.11 in Calm   8 mph 18 % 0 in 768.00 W/m2
15:14 93.5 °F 43.6 °F 30.11 in SSW 3 mph 5 mph 18 % 0 in 761.00 W/m2
15:19 93.8 °F 45.3 °F 30.11 in Calm   5 mph 19 % 0 in 751.00 W/m2
15:24 94.2 °F 45.6 °F 30.11 in Calm   4 mph 19 % 0 in 738.00 W/m2
15:29 94.5 °F 44.4 °F 30.10 in Calm   4 mph 18 % 0 in 728.00 W/m2
15:34 94.7 °F 43.1 °F 30.10 in Calm   4 mph 17 % 0 in 717.00 W/m2
15:39 94.7 °F 44.6 °F 30.10 in SSE 3 mph 4 mph 18 % 0 in 707.00 W/m2
15:44 94.8 °F 43.2 °F 30.10 in Calm   5 mph 17 % 0 in 694.00 W/m2
15:49 94.7 °F 43.1 °F 30.10 in Calm   5 mph 17 % 0 in 680.00 W/m2
15:54 94.6 °F 43 °F 30.10 in Calm   4 mph 17 % 0 in 663.00 W/m2
15:59 94.8 °F 43.2 °F 30.09 in NE 4 mph 4 mph 17 % 0 in 650.00 W/m2
16:04 95 °F 43.4 °F 30.09 in Calm   4 mph 17 % 0 in 638.00 W/m2
16:09 94.8 °F 43.2 °F 30.09 in ENE 1 mph 4 mph 17 % 0 in 622.00 W/m2
16:14 94.5 °F 42.9 °F 30.09 in Calm   5 mph 17 % 0 in 601.00 W/m2
16:19 94.1 °F 42.6 °F 30.09 in Calm   5 mph 17 % 0 in 589.00 W/m2
16:24 94 °F 42.5 °F 30.09 in Calm   1 mph 17 % 0 in 575.00 W/m2
16:29 94.2 °F 42.7 °F 30.09 in Calm   3 mph 17 % 0 in 564.00 W/m2
16:34 94.4 °F 41.3 °F 30.08 in Calm   3 mph 16 % 0 in 547.00 W/m2
16:39 94.4 °F 41.3 °F 30.08 in Calm   2 mph 16 % 0 in 529.00 W/m2
16:44 94.4 °F 41.3 °F 30.08 in Calm   1 mph 16 % 0 in 517.00 W/m2
16:49 94.4 °F 41.3 °F 30.08 in Calm   3 mph 16 % 0 in 496.00 W/m2
16:54 94.6 °F 41.5 °F 30.08 in Calm   4 mph 16 % 0 in 497.00 W/m2
16:59 94.6 °F 39.8 °F 30.08 in Calm   5 mph 15 % 0 in 478.00 W/m2
17:04 94.4 °F 41.3 °F 30.07 in Calm   5 mph 16 % 0 in 462.00 W/m2
17:09 93.9 °F 40.9 °F 30.07 in SSE 1 mph 4 mph 16 % 0 in 446.00 W/m2
17:14 93.6 °F 40.7 °F 30.07 in Calm   6 mph 16 % 0 in 390.00 W/m2
17:19 93.3 °F 40.4 °F 30.08 in Calm   6 mph 16 % 0 in 287.00 W/m2
17:24 92.8 °F 41.6 °F 30.07 in SSE 1 mph 5 mph 17 % 0 in 104.00 W/m2
17:29 92.4 °F 39.7 °F 30.07 in Calm   4 mph 16 % 0 in 98.00 W/m2
17:34 91.9 °F 40.9 °F 30.07 in Calm   5 mph 17 % 0 in 100.00 W/m2
17:39 91.5 °F 40.5 °F 30.07 in ESE 1 mph 5 mph 17 % 0 in 104.00 W/m2
17:44 91.1 °F 40.2 °F 30.07 in Calm   5 mph 17 % 0 in 105.00 W/m2
17:49 90.8 °F 40 °F 30.07 in Calm   4 mph 17 % 0 in 100.00 W/m2
17:54 90.6 °F 39.8 °F 30.07 in Calm   4 mph 17 % 0 in 90.00 W/m2
17:59 90.4 °F 39.6 °F 30.07 in Calm   2 mph 17 % 0 in 86.00 W/m2
18:04 90.2 °F 39.5 °F 30.07 in Calm   2 mph 17 % 0 in 84.00 W/m2
18:09 90 °F 39.3 °F 30.07 in Calm   2 mph 17 % 0 in 86.00 W/m2
18:14 89.9 °F 39.2 °F 30.07 in Calm   1 mph 17 % 0 in 91.00 W/m2
18:19 89.8 °F 39.2 °F 30.07 in Calm   3 mph 17 % 0 in 84.00 W/m2
18:24 89.7 °F 40.6 °F 30.07 in Calm   3 mph 18 % 0 in 81.00 W/m2
18:29 89.5 °F 38.9 °F 30.07 in Calm   1 mph 17 % 0 in 79.00 W/m2
18:34 89.4 °F 38.8 °F 30.07 in Calm   1 mph 17 % 0 in 84.00 W/m2
18:39 89.4 °F 40.3 °F 30.08 in South 2 mph 4 mph 18 % 0 in 88.00 W/m2
18:44 89.4 °F 40.3 °F 30.08 in Calm   4 mph 18 % 0 in 84.00 W/m2
18:49 89.4 °F 38.8 °F 30.08 in Calm   4 mph 17 % 0 in 77.00 W/m2
18:54 89.3 °F 38.8 °F 30.07 in Calm   4 mph 17 % 0 in 65.00 W/m2
18:59 89.3 °F 38.8 °F 30.07 in Calm     17 % 0 in 53.00 W/m2
19:04 89.1 °F 38.6 °F 30.08 in Calm     17 % 0 in 47.00 W/m2
19:09 88.9 °F 39.9 °F 30.07 in Calm     18 % 0 in 39.00 W/m2
19:14 88.8 °F 39.8 °F 30.08 in Calm   4 mph 18 % 0 in 37.00 W/m2
19:19 88.7 °F 39.7 °F 30.08 in Calm   4 mph 18 % 0 in 33.00 W/m2
19:24 88.5 °F 39.6 °F 30.09 in Calm     18 % 0 in 26.00 W/m2
19:29 88.4 °F 39.5 °F 30.09 in Calm   1 mph 18 % 0 in 19.00 W/m2
19:34 88.2 °F 40.7 °F 30.09 in Calm   1 mph 19 % 0 in 14.00 W/m2
19:39 87.9 °F 40.5 °F 30.09 in Calm   1 mph 19 % 0 in 11.00 W/m2
Rio Rancho, New Mexico Weather
Compliments of Weather Underground - 2 mb
top